createdAt,value
2018-11-29T00:00:07.403Z,1.00
2018-11-29T00:02:40.992Z,1.00
2018-11-29T00:05:14.974Z,1.00
2018-11-29T00:07:48.597Z,1.00
2018-11-29T00:10:22.218Z,1.00
2018-11-29T00:12:55.797Z,1.00
2018-11-29T00:15:29.426Z,1.00
2018-11-29T00:18:03.476Z,1.00
2018-11-29T00:20:37.056Z,1.00
2018-11-29T00:23:10.687Z,1.00
2018-11-29T00:25:44.552Z,1.00
2018-11-29T00:28:18.171Z,1.10
2018-11-29T00:30:51.776Z,1.00
2018-11-29T00:33:25.335Z,1.00
2018-11-29T00:35:58.943Z,1.00
2018-11-29T00:38:32.575Z,1.00
2018-11-29T00:41:06.582Z,1.00
2018-11-29T00:43:40.367Z,1.10
2018-11-29T00:46:13.979Z,1.10
2018-11-29T00:48:47.599Z,1.10
2018-11-29T00:51:21.192Z,1.00
2018-11-29T00:53:54.879Z,1.00
2018-11-29T00:56:28.493Z,1.00
2018-11-29T00:59:02.073Z,1.00
2018-11-29T01:01:35.784Z,1.00
2018-11-29T01:04:09.371Z,1.00
2018-11-29T01:06:43.014Z,1.00
2018-11-29T01:09:16.662Z,1.00
2018-11-29T01:11:50.342Z,1.00
2018-11-29T01:14:23.915Z,1.00
2018-11-29T01:16:57.525Z,1.00
2018-11-29T01:19:31.138Z,0.90
2018-11-29T01:22:04.783Z,0.90
2018-11-29T01:24:38.373Z,1.00
2018-11-29T01:27:11.981Z,1.00
2018-11-29T01:29:45.567Z,0.90
2018-11-29T01:32:19.200Z,0.90
2018-11-29T01:34:52.761Z,0.90
2018-11-29T01:37:26.390Z,0.90
2018-11-29T01:39:59.958Z,1.00
2018-11-29T01:42:33.586Z,0.90
2018-11-29T01:45:07.429Z,0.90
2018-11-29T01:47:41.053Z,0.80
2018-11-29T01:50:14.659Z,0.80
2018-11-29T01:52:48.305Z,0.80
2018-11-29T01:55:21.905Z,0.80
2018-11-29T01:57:55.531Z,0.80
2018-11-29T02:00:29.110Z,0.80
2018-11-29T02:03:02.722Z,0.80
2018-11-29T02:05:36.299Z,0.80
2018-11-29T02:08:09.936Z,0.80
2018-11-29T02:10:48.748Z,0.80
2018-11-29T02:13:22.352Z,0.80
2018-11-29T02:15:55.976Z,0.80
2018-11-29T02:18:29.669Z,0.80
2018-11-29T02:21:03.265Z,0.80
2018-11-29T02:23:36.943Z,0.80
2018-11-29T02:26:10.561Z,0.80
2018-11-29T02:28:47.098Z,0.80
2018-11-29T02:31:20.675Z,0.80
2018-11-29T02:33:54.347Z,0.80
2018-11-29T02:36:27.966Z,0.80
2018-11-29T02:39:01.684Z,0.80
2018-11-29T02:41:35.261Z,0.80
2018-11-29T02:44:08.865Z,0.80
2018-11-29T02:46:42.465Z,0.80
2018-11-29T02:49:16.111Z,0.90
2018-11-29T02:51:49.691Z,0.80
2018-11-29T02:54:23.309Z,0.80
2018-11-29T02:56:56.904Z,0.70
2018-11-29T02:59:30.530Z,0.80
2018-11-29T03:02:04.215Z,0.80
2018-11-29T03:04:37.832Z,0.90
2018-11-29T03:07:11.398Z,0.80
2018-11-29T03:09:44.996Z,0.90
2018-11-29T03:12:18.573Z,0.90
2018-11-29T03:14:52.189Z,0.80
2018-11-29T03:17:25.776Z,0.90
2018-11-29T03:19:59.401Z,0.90
2018-11-29T03:22:33.032Z,0.90
2018-11-29T03:25:09.504Z,0.90
2018-11-29T03:27:43.309Z,0.90
2018-11-29T03:30:18.568Z,0.90
2018-11-29T03:32:52.169Z,0.90
2018-11-29T03:35:25.826Z,0.90
2018-11-29T03:37:59.419Z,1.00
2018-11-29T03:40:33.049Z,0.90
2018-11-29T03:43:06.947Z,1.00
2018-11-29T03:45:40.528Z,1.00
2018-11-29T03:48:14.168Z,1.00
2018-11-29T03:50:47.803Z,1.00
2018-11-29T03:53:21.408Z,1.10
2018-11-29T03:55:55.169Z,1.10
2018-11-29T03:58:28.772Z,1.00
2018-11-29T04:01:02.365Z,1.00
2018-11-29T04:03:35.977Z,1.00
2018-11-29T04:06:09.636Z,1.10
2018-11-29T04:08:43.195Z,1.10
2018-11-29T04:11:16.830Z,1.10
2018-11-29T04:13:50.445Z,1.10
2018-11-29T04:16:24.061Z,1.20
2018-11-29T04:18:57.667Z,1.20
2018-11-29T04:21:31.268Z,1.20
2018-11-29T04:24:05.128Z,1.20
2018-11-29T04:26:38.767Z,1.20
2018-11-29T04:29:12.340Z,1.20
2018-11-29T04:31:45.952Z,1.30
2018-11-29T04:34:19.528Z,1.30
2018-11-29T04:36:53.203Z,1.30
2018-11-29T04:39:26.844Z,1.40
2018-11-29T04:42:00.468Z,1.40
2018-11-29T04:44:34.170Z,1.30
2018-11-29T04:47:07.842Z,1.30
2018-11-29T04:49:41.434Z,1.40
2018-11-29T04:52:15.058Z,1.40
2018-11-29T04:54:48.619Z,1.40
2018-11-29T04:57:22.253Z,1.40
2018-11-29T04:59:55.826Z,1.50
2018-11-29T05:02:29.410Z,1.60
2018-11-29T05:05:03.012Z,1.60
2018-11-29T05:07:36.812Z,1.60
2018-11-29T05:10:11.814Z,1.60
2018-11-29T05:12:46.490Z,1.60
2018-11-29T05:15:20.090Z,1.60
2018-11-29T05:17:53.693Z,1.90
2018-11-29T05:20:27.323Z,1.60
2018-11-29T05:23:01.216Z,1.60
2018-11-29T05:25:34.822Z,1.60
2018-11-29T05:28:08.435Z,1.60
2018-11-29T05:30:42.015Z,1.60
2018-11-29T05:33:15.617Z,1.70
2018-11-29T05:35:49.239Z,1.70
2018-11-29T05:38:22.855Z,1.70
2018-11-29T05:40:56.511Z,1.70
2018-11-29T05:43:30.159Z,1.70
2018-11-29T05:46:03.743Z,1.70
2018-11-29T05:48:37.338Z,1.70
2018-11-29T05:51:11.828Z,1.70
2018-11-29T05:53:45.537Z,1.70
2018-11-29T05:56:19.134Z,1.70
2018-11-29T05:58:52.767Z,1.70
2018-11-29T06:01:29.698Z,1.70
2018-11-29T06:04:04.073Z,1.70
2018-11-29T06:06:37.659Z,1.70
2018-11-29T06:09:11.315Z,1.70
2018-11-29T06:11:44.938Z,1.80
2018-11-29T06:14:18.948Z,1.80
2018-11-29T06:16:52.564Z,1.80
2018-11-29T06:19:26.174Z,1.70
2018-11-29T06:21:59.770Z,1.70
2018-11-29T06:24:33.821Z,1.70
2018-11-29T06:27:07.751Z,1.60
2018-11-29T06:29:41.323Z,1.50
2018-11-29T06:32:14.922Z,1.50
2018-11-29T06:34:48.522Z,1.40
2018-11-29T06:37:22.093Z,1.40
2018-11-29T06:39:55.686Z,1.30
2018-11-29T06:42:29.262Z,1.30
2018-11-29T06:45:02.949Z,1.30
2018-11-29T06:47:36.956Z,1.40
2018-11-29T06:50:12.487Z,1.40
2018-11-29T06:52:47.144Z,1.40
2018-11-29T06:55:22.731Z,1.40
2018-11-29T06:57:56.339Z,1.40
2018-11-29T07:00:31.089Z,1.40
2018-11-29T07:03:05.289Z,1.30
2018-11-29T07:05:38.880Z,1.30
2018-11-29T07:08:12.458Z,1.40
2018-11-29T07:10:46.066Z,1.40
2018-11-29T07:13:19.696Z,1.40
2018-11-29T07:15:53.245Z,1.40
2018-11-29T07:18:26.824Z,1.40
2018-11-29T07:21:11.665Z,1.50
2018-11-29T07:23:45.328Z,1.40
2018-11-29T07:26:18.917Z,1.50
2018-11-29T07:28:52.557Z,1.40
2018-11-29T07:31:26.148Z,1.40
2018-11-29T07:33:59.760Z,1.40
2018-11-29T07:36:33.352Z,1.40
2018-11-29T07:39:09.456Z,1.50
2018-11-29T07:41:43.298Z,1.50
2018-11-29T07:44:16.928Z,1.50
2018-11-29T07:46:50.514Z,1.50
2018-11-29T07:49:24.114Z,1.50
2018-11-29T07:51:57.691Z,1.50
2018-11-29T07:54:31.295Z,1.50
2018-11-29T07:57:04.953Z,1.60
2018-11-29T07:59:38.552Z,1.60
2018-11-29T08:02:12.128Z,1.60
2018-11-29T08:04:45.760Z,1.60
2018-11-29T08:07:19.408Z,1.60
2018-11-29T08:09:53.007Z,1.60
2018-11-29T08:12:26.656Z,1.70
2018-11-29T08:15:00.272Z,1.70
2018-11-29T08:17:34.157Z,1.70
2018-11-29T08:20:13.077Z,1.70
2018-11-29T08:22:46.723Z,1.70
2018-11-29T08:25:20.403Z,1.70
2018-11-29T08:27:53.969Z,1.70
2018-11-29T08:30:27.556Z,1.70
2018-11-29T08:33:01.427Z,1.60
2018-11-29T08:35:35.013Z,1.60
2018-11-29T08:38:08.932Z,1.60
2018-11-29T08:40:43.054Z,1.60
2018-11-29T08:43:16.619Z,1.60
2018-11-29T08:45:50.240Z,1.60
2018-11-29T08:48:23.808Z,1.70
2018-11-29T08:50:57.414Z,1.70
2018-11-29T08:53:31.001Z,1.70
2018-11-29T08:56:05.275Z,1.80
2018-11-29T08:58:38.893Z,1.70
2018-11-29T09:01:12.520Z,1.80
2018-11-29T09:03:46.095Z,1.80
2018-11-29T09:06:19.668Z,1.80
2018-11-29T09:08:53.628Z,1.80
2018-11-29T09:11:27.201Z,1.80
2018-11-29T09:14:00.840Z,1.80
2018-11-29T09:16:34.469Z,1.80
2018-11-29T09:19:08.126Z,1.80
2018-11-29T09:21:41.730Z,1.80
2018-11-29T09:24:15.287Z,1.90
2018-11-29T09:26:48.884Z,1.90
2018-11-29T09:29:22.465Z,1.80
2018-11-29T09:31:56.088Z,1.80
2018-11-29T09:34:29.671Z,1.80
2018-11-29T09:37:03.288Z,1.80
2018-11-29T09:39:36.895Z,1.80
2018-11-29T09:42:10.491Z,1.80
2018-11-29T09:44:44.082Z,1.90
2018-11-29T09:47:17.685Z,1.90
2018-11-29T09:49:51.238Z,1.80
2018-11-29T09:52:25.275Z,1.90
2018-11-29T09:54:58.886Z,2.00
2018-11-29T09:57:32.768Z,2.00
2018-11-29T10:00:11.375Z,2.10
2018-11-29T10:02:47.867Z,2.10
2018-11-29T10:05:21.474Z,2.20
2018-11-29T10:07:55.114Z,2.20
2018-11-29T10:10:28.804Z,2.20
2018-11-29T10:13:02.363Z,2.20
2018-11-29T10:15:35.979Z,2.20
2018-11-29T10:18:10.902Z,2.20
2018-11-29T10:20:44.491Z,2.20
2018-11-29T10:23:18.371Z,2.20
2018-11-29T10:25:51.951Z,2.30
2018-11-29T10:28:25.530Z,2.30
2018-11-29T10:31:01.050Z,2.40
2018-11-29T10:33:34.667Z,2.40
2018-11-29T10:36:08.247Z,2.40
2018-11-29T10:38:42.082Z,2.50
2018-11-29T10:41:15.714Z,2.50
2018-11-29T10:43:49.295Z,2.50
2018-11-29T10:46:22.882Z,2.60
2018-11-29T10:48:56.510Z,2.60
2018-11-29T10:51:30.266Z,2.60
2018-11-29T10:54:03.920Z,2.60
2018-11-29T10:56:37.502Z,2.60
2018-11-29T10:59:11.068Z,2.60
2018-11-29T11:01:44.698Z,2.60
2018-11-29T11:04:18.290Z,2.60
2018-11-29T11:06:51.845Z,2.70
2018-11-29T11:09:25.498Z,2.70
2018-11-29T11:11:59.127Z,2.70
2018-11-29T11:14:32.705Z,2.60
2018-11-29T11:17:06.650Z,2.60
2018-11-29T11:19:40.290Z,2.60
2018-11-29T11:22:13.881Z,2.60
2018-11-29T11:24:47.530Z,2.50
2018-11-29T11:27:21.118Z,2.50
2018-11-29T11:29:54.742Z,2.40
2018-11-29T11:32:29.134Z,2.30
2018-11-29T11:35:02.766Z,2.30
2018-11-29T11:37:36.387Z,2.00
2018-11-29T11:40:13.521Z,2.40
2018-11-29T11:42:47.543Z,2.50
2018-11-29T11:45:22.115Z,2.60
2018-11-29T11:47:55.704Z,2.60
2018-11-29T11:50:29.315Z,2.60
2018-11-29T11:53:02.929Z,2.60
2018-11-29T11:55:37.141Z,2.60
2018-11-29T11:58:10.725Z,2.50
2018-11-29T12:00:44.309Z,2.50
2018-11-29T12:03:18.075Z,2.50
2018-11-29T12:05:51.701Z,2.60
2018-11-29T12:08:25.292Z,2.70
2018-11-29T12:10:58.889Z,2.70
2018-11-29T12:13:32.489Z,2.80
2018-11-29T12:16:06.149Z,2.80
2018-11-29T12:18:39.721Z,2.90
2018-11-29T12:21:13.329Z,2.90
2018-11-29T12:23:46.912Z,2.90
2018-11-29T12:26:20.542Z,3.00
2018-11-29T12:28:54.125Z,3.00
2018-11-29T12:31:27.724Z,3.00
2018-11-29T12:34:01.348Z,3.00
2018-11-29T12:36:34.984Z,3.00
2018-11-29T12:39:10.110Z,3.10
2018-11-29T12:41:43.720Z,3.10
2018-11-29T12:44:17.530Z,3.10
2018-11-29T12:46:51.155Z,3.10
2018-11-29T12:49:24.717Z,3.10
2018-11-29T12:51:58.661Z,3.10
2018-11-29T12:54:32.247Z,3.20
2018-11-29T12:57:06.172Z,3.20
2018-11-29T12:59:39.792Z,3.20
2018-11-29T13:02:13.420Z,3.10
2018-11-29T13:04:47.011Z,3.10
2018-11-29T13:07:20.904Z,3.10
2018-11-29T13:09:54.487Z,3.10
2018-11-29T13:12:28.514Z,3.00
2018-11-29T13:15:02.157Z,3.00
2018-11-29T13:17:35.727Z,3.00
2018-11-29T13:20:12.941Z,3.00
2018-11-29T13:22:46.516Z,3.00
2018-11-29T13:25:21.476Z,3.00
2018-11-29T13:27:55.095Z,3.00
2018-11-29T13:30:28.678Z,3.00
2018-11-29T13:33:02.306Z,2.90
2018-11-29T13:35:36.046Z,2.80
2018-11-29T13:38:14.915Z,2.70
2018-11-29T13:40:49.611Z,2.70
2018-11-29T13:43:23.227Z,2.70
2018-11-29T13:45:56.781Z,2.70
2018-11-29T13:48:30.394Z,2.70
2018-11-29T13:51:04.404Z,2.70
2018-11-29T13:53:38.082Z,2.60
2018-11-29T13:56:11.653Z,2.60
2018-11-29T13:58:45.248Z,2.60
2018-11-29T14:01:19.195Z,2.60
2018-11-29T14:03:52.886Z,2.60
2018-11-29T14:06:26.475Z,2.60
2018-11-29T14:09:00.062Z,2.60
2018-11-29T14:11:33.626Z,2.60
2018-11-29T14:14:07.985Z,2.60
2018-11-29T14:16:40.887Z,2.60
2018-11-29T14:19:14.534Z,2.60
2018-11-29T14:21:51.222Z,2.60
2018-11-29T14:24:21.752Z,2.60
2018-11-29T14:26:55.326Z,2.60
2018-11-29T14:29:28.942Z,2.60
2018-11-29T14:32:02.536Z,2.50
2018-11-29T14:34:36.434Z,2.50
2018-11-29T14:37:10.008Z,2.50
2018-11-29T14:39:43.592Z,2.50
2018-11-29T14:42:17.181Z,2.40
2018-11-29T14:44:50.775Z,2.30
2018-11-29T14:47:24.330Z,2.40
2018-11-29T14:49:57.936Z,2.40
2018-11-29T14:52:31.516Z,2.40
2018-11-29T14:57:39.575Z,2.50
2018-11-29T15:00:13.560Z,2.50
2018-11-29T15:02:47.147Z,2.50
2018-11-29T15:05:23.751Z,2.50
2018-11-29T15:07:57.364Z,2.50
2018-11-29T15:10:31.033Z,2.50
2018-11-29T15:13:04.970Z,2.50
2018-11-29T15:15:39.031Z,2.50
2018-11-29T15:18:12.688Z,2.50
2018-11-29T15:20:48.209Z,2.60
2018-11-29T15:23:21.810Z,2.60
2018-11-29T15:25:55.397Z,2.60
2018-11-29T15:28:28.963Z,2.60
2018-11-29T15:31:02.580Z,2.60
2018-11-29T15:33:36.181Z,2.70
2018-11-29T15:36:09.767Z,2.60
2018-11-29T15:38:43.349Z,2.70
2018-11-29T15:41:18.238Z,2.70
2018-11-29T15:43:50.639Z,2.70
2018-11-29T15:46:24.235Z,2.70
2018-11-29T15:49:00.228Z,2.70
2018-11-29T15:51:33.175Z,2.60
2018-11-29T15:54:06.957Z,2.70
2018-11-29T15:56:40.578Z,2.70
2018-11-29T15:59:14.161Z,2.70
2018-11-29T16:01:47.819Z,2.70
2018-11-29T16:04:21.413Z,2.70
2018-11-29T16:06:55.017Z,2.70
2018-11-29T16:09:28.582Z,2.70
2018-11-29T16:12:02.193Z,2.70
2018-11-29T16:14:35.802Z,2.70
2018-11-29T16:17:09.415Z,2.70
2018-11-29T16:19:42.983Z,2.70
2018-11-29T16:22:16.665Z,2.70
2018-11-29T16:24:50.275Z,2.70
2018-11-29T16:27:23.866Z,2.70
2018-11-29T16:29:57.404Z,2.80
2018-11-29T16:32:31.026Z,2.80
2018-11-29T16:35:05.096Z,2.90
2018-11-29T16:37:38.704Z,2.90
2018-11-29T16:40:12.296Z,3.00
2018-11-29T16:42:45.892Z,3.00
2018-11-29T16:45:19.507Z,3.00
2018-11-29T16:47:53.141Z,3.00
2018-11-29T16:50:26.701Z,3.10
2018-11-29T16:53:00.340Z,3.10
2018-11-29T16:55:33.874Z,3.20
2018-11-29T16:58:10.370Z,3.20
2018-11-29T17:00:43.976Z,3.20
2018-11-29T17:03:17.600Z,3.30
2018-11-29T17:05:51.201Z,3.40
2018-11-29T17:08:24.837Z,3.40
2018-11-29T17:10:58.458Z,3.40
2018-11-29T17:13:32.329Z,3.50
2018-11-29T17:16:06.440Z,3.50
2018-11-29T17:18:40.117Z,3.40
2018-11-29T17:21:13.716Z,3.40
2018-11-29T17:23:47.379Z,3.40
2018-11-29T17:26:21.023Z,3.50
2018-11-29T17:28:54.652Z,3.50
2018-11-29T17:31:28.224Z,3.50
2018-11-29T17:34:01.867Z,3.50
2018-11-29T17:36:35.415Z,3.40
2018-11-29T17:39:09.751Z,3.40
2018-11-29T17:41:43.384Z,3.30
2018-11-29T17:44:17.135Z,3.30
2018-11-29T17:46:50.736Z,3.40
2018-11-29T17:49:24.363Z,3.30
2018-11-29T17:51:57.976Z,3.30
2018-11-29T17:54:31.584Z,3.30
2018-11-29T17:57:05.328Z,3.30
2018-11-29T17:59:38.934Z,3.20
2018-11-29T18:02:12.564Z,3.20
2018-11-29T18:04:46.115Z,3.30
2018-11-29T18:07:19.743Z,3.30
2018-11-29T18:09:53.347Z,3.30
2018-11-29T18:12:26.967Z,3.30
2018-11-29T18:15:00.537Z,3.30
2018-11-29T18:17:34.134Z,3.30
2018-11-29T18:20:09.561Z,3.30
2018-11-29T18:22:43.234Z,3.30
2018-11-29T18:25:17.527Z,3.30
2018-11-29T18:27:52.414Z,3.30
2018-11-29T18:30:26.117Z,3.30
2018-11-29T18:32:59.708Z,3.30
2018-11-29T18:35:33.267Z,3.30
2018-11-29T18:38:07.771Z,3.40
2018-11-29T18:40:41.427Z,3.40
2018-11-29T18:43:15.040Z,3.30
2018-11-29T18:45:48.873Z,3.40
2018-11-29T18:48:22.469Z,3.40
2018-11-29T18:50:56.109Z,3.40
2018-11-29T18:53:29.782Z,3.40
2018-11-29T18:56:03.373Z,3.30
2018-11-29T18:58:36.978Z,3.50
2018-11-29T19:01:10.562Z,3.50
2018-11-29T19:03:44.143Z,3.50
2018-11-29T19:06:17.729Z,3.50
2018-11-29T19:08:51.382Z,3.50
2018-11-29T19:11:24.947Z,3.50
2018-11-29T19:13:58.549Z,3.60
2018-11-29T19:16:32.169Z,3.60
2018-11-29T19:19:06.049Z,3.70
2018-11-29T19:21:39.670Z,3.60
2018-11-29T19:24:13.286Z,3.50
2018-11-29T19:26:46.896Z,3.60
2018-11-29T19:29:20.559Z,3.60
2018-11-29T19:31:54.138Z,3.60
2018-11-29T19:34:27.741Z,3.60
2018-11-29T19:37:01.448Z,3.60
2018-11-29T19:39:35.049Z,3.60
2018-11-29T19:42:08.612Z,3.60
2018-11-29T19:44:42.223Z,3.70
2018-11-29T19:47:15.798Z,3.60
2018-11-29T19:49:49.396Z,3.60
2018-11-29T19:52:23.016Z,3.60
2018-11-29T19:54:56.659Z,3.60
2018-11-29T19:57:31.129Z,3.60
2018-11-29T20:00:06.777Z,3.50
2018-11-29T20:02:40.845Z,3.50
2018-11-29T20:05:15.176Z,3.50
2018-11-29T20:07:48.793Z,3.40
2018-11-29T20:10:23.090Z,3.40
2018-11-29T20:13:01.794Z,3.30
2018-11-29T20:15:37.418Z,3.30
2018-11-29T20:18:12.036Z,3.30
2018-11-29T20:20:45.634Z,3.20
2018-11-29T20:23:19.205Z,3.20
2018-11-29T20:25:52.906Z,3.20
2018-11-29T20:28:26.517Z,3.20
2018-11-29T20:31:00.154Z,3.20
2018-11-29T20:33:33.715Z,3.10
2018-11-29T20:36:07.667Z,3.10
2018-11-29T20:38:41.245Z,3.10
2018-11-29T20:41:14.893Z,3.10
2018-11-29T20:43:48.465Z,3.00
2018-11-29T20:46:22.095Z,3.00
2018-11-29T20:48:55.700Z,3.00
2018-11-29T20:51:29.400Z,2.90
2018-11-29T20:54:03.036Z,2.90
2018-11-29T20:56:36.664Z,2.90
2018-11-29T20:59:10.257Z,2.90
2018-11-29T21:01:43.864Z,2.80
2018-11-29T21:04:17.497Z,2.90
2018-11-29T21:06:51.078Z,2.90
2018-11-29T21:09:24.696Z,2.90
2018-11-29T21:11:58.506Z,2.90
2018-11-29T21:14:32.240Z,2.90
2018-11-29T21:17:06.035Z,3.00
2018-11-29T21:19:39.696Z,2.90
2018-11-29T21:22:13.264Z,3.00
2018-11-29T21:24:46.903Z,3.00
2018-11-29T21:27:20.471Z,3.00
2018-11-29T21:29:54.101Z,2.90
2018-11-29T21:32:27.953Z,2.80
2018-11-29T21:35:01.589Z,2.80
2018-11-29T21:37:35.187Z,2.70
2018-11-29T21:40:15.370Z,2.60
2018-11-29T21:42:48.975Z,2.60
2018-11-29T21:45:22.579Z,2.60
2018-11-29T21:47:56.208Z,2.60
2018-11-29T21:50:29.798Z,2.70
2018-11-29T21:53:03.431Z,2.70
2018-11-29T21:55:37.100Z,2.80
2018-11-29T21:58:10.731Z,2.80
2018-11-29T22:00:44.329Z,2.80
2018-11-29T22:03:17.902Z,2.80
2018-11-29T22:05:51.511Z,2.80
2018-11-29T22:08:25.434Z,2.80
2018-11-29T22:10:59.022Z,2.80
2018-11-29T22:13:32.688Z,2.70
2018-11-29T22:16:06.314Z,2.70
2018-11-29T22:18:39.894Z,2.70
2018-11-29T22:21:13.543Z,2.70
2018-11-29T22:23:47.120Z,2.70
2018-11-29T22:28:53.969Z,2.80
2018-11-29T22:31:27.937Z,2.90
2018-11-29T22:34:01.523Z,2.90
2018-11-29T22:36:35.189Z,2.80
2018-11-29T22:39:10.310Z,2.80
2018-11-29T22:41:43.925Z,2.80
2018-11-29T22:44:17.534Z,2.80
2018-11-29T22:46:51.131Z,2.80
2018-11-29T22:49:24.695Z,2.90
2018-11-29T22:51:58.662Z,2.90
2018-11-29T22:54:32.245Z,2.90
2018-11-29T22:57:06.443Z,3.00
2018-11-29T22:59:40.055Z,2.90
2018-11-29T23:02:13.661Z,2.90
2018-11-29T23:04:47.241Z,2.90
2018-11-29T23:07:20.849Z,2.90
2018-11-29T23:09:54.564Z,3.00
2018-11-29T23:12:28.185Z,2.90
2018-11-29T23:15:02.274Z,2.90
2018-11-29T23:17:35.897Z,2.90
2018-11-29T23:20:11.669Z,2.90
2018-11-29T23:22:45.321Z,2.90
2018-11-29T23:25:18.899Z,2.90
2018-11-29T23:27:52.500Z,2.90
2018-11-29T23:30:26.083Z,2.90
2018-11-29T23:32:59.719Z,2.90
2018-11-29T23:35:33.319Z,2.90
2018-11-29T23:38:06.980Z,2.90
2018-11-29T23:40:40.598Z,3.00
2018-11-29T23:43:14.175Z,3.00
2018-11-29T23:45:47.761Z,3.00
2018-11-29T23:48:21.337Z,3.00
2018-11-29T23:50:54.913Z,3.00
2018-11-29T23:53:28.545Z,2.90
2018-11-29T23:56:02.149Z,2.90
2018-11-29T23:58:35.794Z,2.90
